sensor_id;sensor_type;location;lat;lon;timestamp;temperature;humidity
41664;DHT22;27353;50.906;7.248;2022-10-10T00:00:45;10.10;99.90
41664;DHT22;27353;50.906;7.248;2022-10-10T00:03:11;10.20;99.90
41664;DHT22;27353;50.906;7.248;2022-10-10T00:05:37;10.20;99.90
41664;DHT22;27353;50.906;7.248;2022-10-10T00:08:04;10.20;99.90
41664;DHT22;27353;50.906;7.248;2022-10-10T00:10:31;10.20;99.90
41664;DHT22;27353;50.906;7.248;2022-10-10T00:12:56;10.10;99.90
41664;DHT22;27353;50.906;7.248;2022-10-10T00:15:22;10.10;99.90
41664;DHT22;27353;50.906;7.248;2022-10-10T00:17:48;10.10;99.90
41664;DHT22;27353;50.906;7.248;2022-10-10T00:20:15;10.10;99.90
41664;DHT22;27353;50.906;7.248;2022-10-10T00:22:42;10.10;99.90
41664;DHT22;27353;50.906;7.248;2022-10-10T00:25:08;10.10;99.90
41664;DHT22;27353;50.906;7.248;2022-10-10T00:27:34;10.10;99.90
41664;DHT22;27353;50.906;7.248;2022-10-10T00:30:00;10.10;99.90
41664;DHT22;27353;50.906;7.248;2022-10-10T00:32:26;10.00;99.90
41664;DHT22;27353;50.906;7.248;2022-10-10T00:34:52;10.00;99.90
41664;DHT22;27353;50.906;7.248;2022-10-10T00:37:17;10.00;99.90
41664;DHT22;27353;50.906;7.248;2022-10-10T00:39:43;9.90;99.90
41664;DHT22;27353;50.906;7.248;2022-10-10T00:42:13;10.00;99.90
41664;DHT22;27353;50.906;7.248;2022-10-10T00:44:40;10.00;99.90
41664;DHT22;27353;50.906;7.248;2022-10-10T00:47:06;10.00;99.90
41664;DHT22;27353;50.906;7.248;2022-10-10T00:49:35;10.00;99.90
41664;DHT22;27353;50.906;7.248;2022-10-10T00:52:03;10.00;99.90
41664;DHT22;27353;50.906;7.248;2022-10-10T00:54:31;10.00;99.90
41664;DHT22;27353;50.906;7.248;2022-10-10T00:57:10;9.90;99.90
41664;DHT22;27353;50.906;7.248;2022-10-10T00:59:40;9.90;99.90
41664;DHT22;27353;50.906;7.248;2022-10-10T01:02:06;9.90;99.90
41664;DHT22;27353;50.906;7.248;2022-10-10T01:04:42;9.90;99.90
41664;DHT22;27353;50.906;7.248;2022-10-10T01:07:12;9.80;99.90
41664;DHT22;27353;50.906;7.248;2022-10-10T01:09:40;9.80;99.90
41664;DHT22;27353;50.906;7.248;2022-10-10T01:12:20;9.80;99.90
41664;DHT22;27353;50.906;7.248;2022-10-10T01:29:17;9.50;99.90
41664;DHT22;27353;50.906;7.248;2022-10-10T01:31:46;9.60;99.90
41664;DHT22;27353;50.906;7.248;2022-10-10T01:39:42;9.60;99.90
41664;DHT22;27353;50.906;7.248;2022-10-10T01:42:22;9.60;99.90
41664;DHT22;27353;50.906;7.248;2022-10-10T01:44:48;9.50;99.90
41664;DHT22;27353;50.906;7.248;2022-10-10T01:47:18;9.60;99.90
41664;DHT22;27353;50.906;7.248;2022-10-10T01:49:45;9.60;99.90
41664;DHT22;27353;50.906;7.248;2022-10-10T02:00:26;9.60;99.90
41664;DHT22;27353;50.906;7.248;2022-10-10T02:05:31;9.60;99.90
41664;DHT22;27353;50.906;7.248;2022-10-10T02:08:12;9.60;99.90
41664;DHT22;27353;50.906;7.248;2022-10-10T02:10:49;9.50;99.90
41664;DHT22;27353;50.906;7.248;2022-10-10T02:13:17;9.50;99.90
41664;DHT22;27353;50.906;7.248;2022-10-10T02:15:52;9.50;99.90
41664;DHT22;27353;50.906;7.248;2022-10-10T02:18:21;9.50;99.90
41664;DHT22;27353;50.906;7.248;2022-10-10T02:20:49;9.50;99.90
41664;DHT22;27353;50.906;7.248;2022-10-10T02:23:17;9.50;99.90
41664;DHT22;27353;50.906;7.248;2022-10-10T02:25:49;9.50;99.90
41664;DHT22;27353;50.906;7.248;2022-10-10T02:30:49;9.40;99.90
41664;DHT22;27353;50.906;7.248;2022-10-10T02:33:19;9.50;99.90
41664;DHT22;27353;50.906;7.248;2022-10-10T02:35:49;9.40;99.90
41664;DHT22;27353;50.906;7.248;2022-10-10T02:38:16;9.40;99.90
41664;DHT22;27353;50.906;7.248;2022-10-10T02:40:44;9.40;99.90
41664;DHT22;27353;50.906;7.248;2022-10-10T02:43:12;9.40;99.90
41664;DHT22;27353;50.906;7.248;2022-10-10T02:45:39;9.30;99.90
41664;DHT22;27353;50.906;7.248;2022-10-10T02:48:05;9.30;99.90
41664;DHT22;27353;50.906;7.248;2022-10-10T02:50:32;9.30;99.90
41664;DHT22;27353;50.906;7.248;2022-10-10T02:52:58;9.30;99.90
41664;DHT22;27353;50.906;7.248;2022-10-10T02:55:24;9.30;99.90
41664;DHT22;27353;50.906;7.248;2022-10-10T02:57:50;9.20;99.90
41664;DHT22;27353;50.906;7.248;2022-10-10T03:00:16;9.20;99.90
41664;DHT22;27353;50.906;7.248;2022-10-10T03:02:42;9.20;99.90
41664;DHT22;27353;50.906;7.248;2022-10-10T03:05:08;9.20;99.90
41664;DHT22;27353;50.906;7.248;2022-10-10T03:07:34;9.20;99.90
41664;DHT22;27353;50.906;7.248;2022-10-10T03:10:00;9.20;99.90
41664;DHT22;27353;50.906;7.248;2022-10-10T03:12:26;9.10;99.90
41664;DHT22;27353;50.906;7.248;2022-10-10T03:14:51;9.10;99.90
41664;DHT22;27353;50.906;7.248;2022-10-10T03:17:17;9.00;99.90
41664;DHT22;27353;50.906;7.248;2022-10-10T03:19:42;9.00;99.90
41664;DHT22;27353;50.906;7.248;2022-10-10T03:22:08;9.00;99.90
41664;DHT22;27353;50.906;7.248;2022-10-10T03:24:34;9.00;99.90
41664;DHT22;27353;50.906;7.248;2022-10-10T03:26:59;9.00;99.90
41664;DHT22;27353;50.906;7.248;2022-10-10T03:29:25;8.90;99.90
41664;DHT22;27353;50.906;7.248;2022-10-10T03:31:51;8.90;99.90
41664;DHT22;27353;50.906;7.248;2022-10-10T03:34:16;8.80;99.90
41664;DHT22;27353;50.906;7.248;2022-10-10T03:36:42;8.90;99.90
41664;DHT22;27353;50.906;7.248;2022-10-10T03:39:08;8.90;99.90
41664;DHT22;27353;50.906;7.248;2022-10-10T03:41:34;8.90;99.90
41664;DHT22;27353;50.906;7.248;2022-10-10T03:44:00;8.90;99.90
41664;DHT22;27353;50.906;7.248;2022-10-10T03:46:26;8.90;99.90
41664;DHT22;27353;50.906;7.248;2022-10-10T03:48:51;8.80;99.90
41664;DHT22;27353;50.906;7.248;2022-10-10T03:51:17;8.80;99.90
41664;DHT22;27353;50.906;7.248;2022-10-10T03:53:42;8.70;99.90
41664;DHT22;27353;50.906;7.248;2022-10-10T03:56:08;8.70;99.90
41664;DHT22;27353;50.906;7.248;2022-10-10T03:58:34;8.80;99.90
41664;DHT22;27353;50.906;7.248;2022-10-10T04:01:01;8.70;99.90
41664;DHT22;27353;50.906;7.248;2022-10-10T04:03:27;8.80;99.90
41664;DHT22;27353;50.906;7.248;2022-10-10T04:05:53;8.80;99.90
41664;DHT22;27353;50.906;7.248;2022-10-10T04:08:19;8.80;99.90
41664;DHT22;27353;50.906;7.248;2022-10-10T04:10:52;8.80;99.90
41664;DHT22;27353;50.906;7.248;2022-10-10T04:13:18;8.90;99.90
41664;DHT22;27353;50.906;7.248;2022-10-10T04:15:44;8.80;99.90
41664;DHT22;27353;50.906;7.248;2022-10-10T04:18:10;8.70;99.90
41664;DHT22;27353;50.906;7.248;2022-10-10T04:20:36;8.80;99.90
41664;DHT22;27353;50.906;7.248;2022-10-10T04:23:01;8.80;99.90
41664;DHT22;27353;50.906;7.248;2022-10-10T04:25:27;8.80;99.90
41664;DHT22;27353;50.906;7.248;2022-10-10T04:27:53;8.80;99.90
41664;DHT22;27353;50.906;7.248;2022-10-10T04:30:18;8.70;99.90
41664;DHT22;27353;50.906;7.248;2022-10-10T04:32:44;8.70;99.90
41664;DHT22;27353;50.906;7.248;2022-10-10T04:35:10;8.70;99.90
41664;DHT22;27353;50.906;7.248;2022-10-10T04:37:35;8.60;99.90
41664;DHT22;27353;50.906;7.248;2022-10-10T04:40:02;8.60;99.90
41664;DHT22;27353;50.906;7.248;2022-10-10T04:42:28;8.50;99.90
41664;DHT22;27353;50.906;7.248;2022-10-10T04:44:53;8.50;99.90
41664;DHT22;27353;50.906;7.248;2022-10-10T04:47:19;8.50;99.90
41664;DHT22;27353;50.906;7.248;2022-10-10T04:49:44;8.50;99.90
41664;DHT22;27353;50.906;7.248;2022-10-10T04:52:10;8.60;99.90
41664;DHT22;27353;50.906;7.248;2022-10-10T04:54:36;8.60;99.90
41664;DHT22;27353;50.906;7.248;2022-10-10T04:57:02;8.60;99.90
41664;DHT22;27353;50.906;7.248;2022-10-10T04:59:28;8.60;99.90
41664;DHT22;27353;50.906;7.248;2022-10-10T05:01:53;8.60;99.90
41664;DHT22;27353;50.906;7.248;2022-10-10T05:04:19;8.60;99.90
41664;DHT22;27353;50.906;7.248;2022-10-10T05:06:44;8.60;99.90
41664;DHT22;27353;50.906;7.248;2022-10-10T05:09:10;8.50;99.90
41664;DHT22;27353;50.906;7.248;2022-10-10T05:11:36;8.50;99.90
41664;DHT22;27353;50.906;7.248;2022-10-10T05:14:02;8.50;99.90
41664;DHT22;27353;50.906;7.248;2022-10-10T05:16:27;8.50;99.90
41664;DHT22;27353;50.906;7.248;2022-10-10T05:18:53;8.50;99.90
41664;DHT22;27353;50.906;7.248;2022-10-10T05:21:19;8.50;99.90
41664;DHT22;27353;50.906;7.248;2022-10-10T05:23:44;8.40;99.90
41664;DHT22;27353;50.906;7.248;2022-10-10T05:26:10;8.40;99.90
41664;DHT22;27353;50.906;7.248;2022-10-10T05:28:36;8.40;99.90
41664;DHT22;27353;50.906;7.248;2022-10-10T05:31:02;8.40;99.90
41664;DHT22;27353;50.906;7.248;2022-10-10T05:33:28;8.40;99.90
41664;DHT22;27353;50.906;7.248;2022-10-10T05:36:04;8.40;99.90
41664;DHT22;27353;50.906;7.248;2022-10-10T05:38:30;8.40;99.90
41664;DHT22;27353;50.906;7.248;2022-10-10T05:40:56;8.40;99.90
41664;DHT22;27353;50.906;7.248;2022-10-10T05:43:21;8.40;99.90
41664;DHT22;27353;50.906;7.248;2022-10-10T05:45:47;8.50;99.90
41664;DHT22;27353;50.906;7.248;2022-10-10T05:48:12;8.40;99.90
41664;DHT22;27353;50.906;7.248;2022-10-10T05:50:40;8.40;99.90
41664;DHT22;27353;50.906;7.248;2022-10-10T05:53:06;8.30;99.90
41664;DHT22;27353;50.906;7.248;2022-10-10T05:55:32;8.30;99.90
41664;DHT22;27353;50.906;7.248;2022-10-10T05:57:57;8.30;99.90
41664;DHT22;27353;50.906;7.248;2022-10-10T06:00:23;8.30;99.90
41664;DHT22;27353;50.906;7.248;2022-10-10T06:02:49;8.40;99.90
41664;DHT22;27353;50.906;7.248;2022-10-10T06:05:15;8.40;99.90
41664;DHT22;27353;50.906;7.248;2022-10-10T06:07:41;8.40;99.90
41664;DHT22;27353;50.906;7.248;2022-10-10T06:10:07;8.40;99.90
41664;DHT22;27353;50.906;7.248;2022-10-10T06:12:33;8.50;99.90
41664;DHT22;27353;50.906;7.248;2022-10-10T06:14:59;8.50;99.90
41664;DHT22;27353;50.906;7.248;2022-10-10T06:17:25;8.60;99.90
41664;DHT22;27353;50.906;7.248;2022-10-10T06:19:50;8.60;99.90
41664;DHT22;27353;50.906;7.248;2022-10-10T06:22:16;8.60;99.90
41664;DHT22;27353;50.906;7.248;2022-10-10T06:24:42;8.60;99.90
41664;DHT22;27353;50.906;7.248;2022-10-10T06:27:07;8.70;99.90
41664;DHT22;27353;50.906;7.248;2022-10-10T06:29:33;8.70;99.90
41664;DHT22;27353;50.906;7.248;2022-10-10T06:31:58;8.80;99.90
41664;DHT22;27353;50.906;7.248;2022-10-10T06:34:24;8.80;99.90
41664;DHT22;27353;50.906;7.248;2022-10-10T06:36:50;8.90;99.90
41664;DHT22;27353;50.906;7.248;2022-10-10T06:39:16;9.00;99.90
41664;DHT22;27353;50.906;7.248;2022-10-10T06:41:42;9.10;99.90
41664;DHT22;27353;50.906;7.248;2022-10-10T06:44:07;9.10;99.90
41664;DHT22;27353;50.906;7.248;2022-10-10T06:46:33;9.20;99.90
41664;DHT22;27353;50.906;7.248;2022-10-10T06:49:02;9.30;99.90
41664;DHT22;27353;50.906;7.248;2022-10-10T06:51:29;9.30;99.90
41664;DHT22;27353;50.906;7.248;2022-10-10T06:53:56;9.40;99.90
41664;DHT22;27353;50.906;7.248;2022-10-10T06:56:22;9.50;99.90
41664;DHT22;27353;50.906;7.248;2022-10-10T06:58:47;9.60;99.90
41664;DHT22;27353;50.906;7.248;2022-10-10T07:01:13;9.70;99.90
41664;DHT22;27353;50.906;7.248;2022-10-10T07:03:41;9.80;99.90
41664;DHT22;27353;50.906;7.248;2022-10-10T07:06:08;9.90;99.90
41664;DHT22;27353;50.906;7.248;2022-10-10T07:08:35;9.90;99.90
41664;DHT22;27353;50.906;7.248;2022-10-10T07:11:01;10.00;99.90
41664;DHT22;27353;50.906;7.248;2022-10-10T07:13:27;10.20;99.90
41664;DHT22;27353;50.906;7.248;2022-10-10T07:15:53;10.20;99.90
41664;DHT22;27353;50.906;7.248;2022-10-10T07:18:19;10.20;99.90
41664;DHT22;27353;50.906;7.248;2022-10-10T07:20:45;10.40;99.90
41664;DHT22;27353;50.906;7.248;2022-10-10T07:23:11;10.50;99.90
41664;DHT22;27353;50.906;7.248;2022-10-10T07:25:37;10.60;99.90
41664;DHT22;27353;50.906;7.248;2022-10-10T07:28:05;10.70;99.90
41664;DHT22;27353;50.906;7.248;2022-10-10T07:30:30;10.80;99.90
41664;DHT22;27353;50.906;7.248;2022-10-10T07:32:56;11.00;99.90
41664;DHT22;27353;50.906;7.248;2022-10-10T07:35:22;11.10;99.90
41664;DHT22;27353;50.906;7.248;2022-10-10T07:37:52;11.30;99.90
41664;DHT22;27353;50.906;7.248;2022-10-10T07:40:19;11.50;99.90
41664;DHT22;27353;50.906;7.248;2022-10-10T07:42:45;11.60;99.90
41664;DHT22;27353;50.906;7.248;2022-10-10T07:45:10;11.90;99.90
41664;DHT22;27353;50.906;7.248;2022-10-10T07:47:39;12.20;99.90
41664;DHT22;27353;50.906;7.248;2022-10-10T07:50:06;12.30;99.90
41664;DHT22;27353;50.906;7.248;2022-10-10T07:52:33;12.80;99.90
41664;DHT22;27353;50.906;7.248;2022-10-10T07:54:59;13.60;99.90
41664;DHT22;27353;50.906;7.248;2022-10-10T07:57:25;15.20;99.90
41664;DHT22;27353;50.906;7.248;2022-10-10T07:59:51;16.60;99.90
41664;DHT22;27353;50.906;7.248;2022-10-10T08:02:16;18.80;99.90
41664;DHT22;27353;50.906;7.248;2022-10-10T08:04:42;20.30;99.90
41664;DHT22;27353;50.906;7.248;2022-10-10T08:07:08;21.30;99.90
41664;DHT22;27353;50.906;7.248;2022-10-10T08:09:33;22.00;99.90
41664;DHT22;27353;50.906;7.248;2022-10-10T08:11:59;22.10;99.90
41664;DHT22;27353;50.906;7.248;2022-10-10T08:14:25;23.10;98.60
41664;DHT22;27353;50.906;7.248;2022-10-10T08:16:50;22.90;97.80
41664;DHT22;27353;50.906;7.248;2022-10-10T08:19:16;23.20;97.20
41664;DHT22;27353;50.906;7.248;2022-10-10T08:21:41;23.10;96.20
41664;DHT22;27353;50.906;7.248;2022-10-10T08:24:07;22.70;97.10
41664;DHT22;27353;50.906;7.248;2022-10-10T08:26:32;23.30;95.70
41664;DHT22;27353;50.906;7.248;2022-10-10T08:28:58;23.40;96.10
41664;DHT22;27353;50.906;7.248;2022-10-10T08:31:24;23.50;95.80
41664;DHT22;27353;50.906;7.248;2022-10-10T08:33:51;24.40;94.10
41664;DHT22;27353;50.906;7.248;2022-10-10T08:36:19;24.00;94.30
41664;DHT22;27353;50.906;7.248;2022-10-10T08:38:45;24.40;93.90
41664;DHT22;27353;50.906;7.248;2022-10-10T08:42:08;25.10;93.10
41664;DHT22;27353;50.906;7.248;2022-10-10T08:44:18;26.50;91.20
41664;DHT22;27353;50.906;7.248;2022-10-10T08:46:47;26.60;89.60
41664;DHT22;27353;50.906;7.248;2022-10-10T08:49:31;26.50;90.40
41664;DHT22;27353;50.906;7.248;2022-10-10T08:54:39;25.60;91.20
41664;DHT22;27353;50.906;7.248;2022-10-10T08:57:13;26.10;90.10
41664;DHT22;27353;50.906;7.248;2022-10-10T08:59:47;26.80;88.80
41664;DHT22;27353;50.906;7.248;2022-10-10T09:02:52;26.60;86.20
41664;DHT22;27353;50.906;7.248;2022-10-10T09:05:15;24.70;90.60
41664;DHT22;27353;50.906;7.248;2022-10-10T09:08:04;23.70;92.20
41664;DHT22;27353;50.906;7.248;2022-10-10T09:13:25;23.60;92.70
41664;DHT22;27353;50.906;7.248;2022-10-10T09:16:05;24.80;91.50
41664;DHT22;27353;50.906;7.248;2022-10-10T09:21:18;25.40;91.50
41664;DHT22;27353;50.906;7.248;2022-10-10T09:23:56;26.60;90.10
41664;DHT22;27353;50.906;7.248;2022-10-10T09:26:29;27.70;86.90
41664;DHT22;27353;50.906;7.248;2022-10-10T09:29:39;27.80;86.50
41664;DHT22;27353;50.906;7.248;2022-10-10T09:32:19;27.50;86.20
41664;DHT22;27353;50.906;7.248;2022-10-10T09:34:58;28.40;84.30
41664;DHT22;27353;50.906;7.248;2022-10-10T09:37:36;29.40;82.30
41664;DHT22;27353;50.906;7.248;2022-10-10T09:40:11;29.60;80.30
41664;DHT22;27353;50.906;7.248;2022-10-10T09:42:39;30.10;80.50
41664;DHT22;27353;50.906;7.248;2022-10-10T09:45:34;30.70;78.20
41664;DHT22;27353;50.906;7.248;2022-10-10T09:48:01;30.10;75.30
41664;DHT22;27353;50.906;7.248;2022-10-10T09:50:27;30.80;75.30
41664;DHT22;27353;50.906;7.248;2022-10-10T09:52:53;30.60;74.30
41664;DHT22;27353;50.906;7.248;2022-10-10T09:55:37;30.50;73.50
41664;DHT22;27353;50.906;7.248;2022-10-10T09:58:19;31.50;72.20
41664;DHT22;27353;50.906;7.248;2022-10-10T10:00:46;29.80;74.40
41664;DHT22;27353;50.906;7.248;2022-10-10T10:03:14;30.00;74.60
41664;DHT22;27353;50.906;7.248;2022-10-10T10:05:44;30.40;73.60
41664;DHT22;27353;50.906;7.248;2022-10-10T10:08:36;30.60;73.40
41664;DHT22;27353;50.906;7.248;2022-10-10T10:11:02;31.30;71.20
41664;DHT22;27353;50.906;7.248;2022-10-10T10:13:31;31.40;71.20
41664;DHT22;27353;50.906;7.248;2022-10-10T10:16:07;31.20;70.10
41664;DHT22;27353;50.906;7.248;2022-10-10T10:18:39;30.20;69.90
41664;DHT22;27353;50.906;7.248;2022-10-10T10:23:41;30.80;72.40
41664;DHT22;27353;50.906;7.248;2022-10-10T10:29:07;31.70;67.70
41664;DHT22;27353;50.906;7.248;2022-10-10T10:32:03;31.70;68.40
41664;DHT22;27353;50.906;7.248;2022-10-10T10:34:47;32.10;67.10
41664;DHT22;27353;50.906;7.248;2022-10-10T10:43:05;31.60;66.90
41664;DHT22;27353;50.906;7.248;2022-10-10T10:45:55;30.10;68.30
41664;DHT22;27353;50.906;7.248;2022-10-10T10:51:32;29.40;71.00
41664;DHT22;27353;50.906;7.248;2022-10-10T10:56:56;29.10;72.90
41664;DHT22;27353;50.906;7.248;2022-10-10T11:02:55;28.50;74.10
41664;DHT22;27353;50.906;7.248;2022-10-10T11:08:48;28.90;73.80
41664;DHT22;27353;50.906;7.248;2022-10-10T11:11:42;28.90;74.80
41664;DHT22;27353;50.906;7.248;2022-10-10T11:17:24;29.10;71.80
41664;DHT22;27353;50.906;7.248;2022-10-10T11:20:27;30.00;70.30
41664;DHT22;27353;50.906;7.248;2022-10-10T11:23:22;31.40;68.40
41664;DHT22;27353;50.906;7.248;2022-10-10T11:28:28;33.50;64.90
41664;DHT22;27353;50.906;7.248;2022-10-10T11:31:02;33.70;62.80
41664;DHT22;27353;50.906;7.248;2022-10-10T11:33:33;33.60;59.70
41664;DHT22;27353;50.906;7.248;2022-10-10T11:36:04;30.60;62.20
41664;DHT22;27353;50.906;7.248;2022-10-10T11:38:40;29.30;66.80
41664;DHT22;27353;50.906;7.248;2022-10-10T11:41:27;28.10;70.60
41664;DHT22;27353;50.906;7.248;2022-10-10T11:44:12;27.80;70.60
41664;DHT22;27353;50.906;7.248;2022-10-10T11:54:38;26.20;76.00
41664;DHT22;27353;50.906;7.248;2022-10-10T11:57:15;26.10;76.60
41664;DHT22;27353;50.906;7.248;2022-10-10T11:59:51;25.90;76.40
41664;DHT22;27353;50.906;7.248;2022-10-10T12:02:26;25.60;78.60
41664;DHT22;27353;50.906;7.248;2022-10-10T12:04:52;25.90;77.80
41664;DHT22;27353;50.906;7.248;2022-10-10T12:07:19;26.80;75.30
41664;DHT22;27353;50.906;7.248;2022-10-10T12:09:57;27.20;75.90
41664;DHT22;27353;50.906;7.248;2022-10-10T12:12:28;27.20;75.00
41664;DHT22;27353;50.906;7.248;2022-10-10T12:14:54;26.70;74.00
41664;DHT22;27353;50.906;7.248;2022-10-10T12:17:28;26.20;75.80
41664;DHT22;27353;50.906;7.248;2022-10-10T12:22:39;25.00;79.20
41664;DHT22;27353;50.906;7.248;2022-10-10T12:25:24;24.70;79.60
41664;DHT22;27353;50.906;7.248;2022-10-10T12:30:37;24.20;82.20
41664;DHT22;27353;50.906;7.248;2022-10-10T12:44:41;23.50;86.90
41664;DHT22;27353;50.906;7.248;2022-10-10T12:50:03;23.20;84.70
41664;DHT22;27353;50.906;7.248;2022-10-10T12:55:41;23.00;86.00
41664;DHT22;27353;50.906;7.248;2022-10-10T12:58:24;22.90;86.20
41664;DHT22;27353;50.906;7.248;2022-10-10T13:00:51;22.50;88.20
41664;DHT22;27353;50.906;7.248;2022-10-10T13:03:29;22.20;87.50
41664;DHT22;27353;50.906;7.248;2022-10-10T13:06:06;22.30;88.80
41664;DHT22;27353;50.906;7.248;2022-10-10T13:08:33;22.90;85.70
41664;DHT22;27353;50.906;7.248;2022-10-10T13:11:13;22.90;85.30
41664;DHT22;27353;50.906;7.248;2022-10-10T13:13:47;22.60;86.00
41664;DHT22;27353;50.906;7.248;2022-10-10T13:16:14;22.50;85.70
41664;DHT22;27353;50.906;7.248;2022-10-10T13:18:49;22.40;88.50
41664;DHT22;27353;50.906;7.248;2022-10-10T13:21:21;22.20;90.50
41664;DHT22;27353;50.906;7.248;2022-10-10T13:23:49;22.10;88.00
41664;DHT22;27353;50.906;7.248;2022-10-10T13:26:27;22.10;88.00
41664;DHT22;27353;50.906;7.248;2022-10-10T13:28:55;21.80;89.10
41664;DHT22;27353;50.906;7.248;2022-10-10T13:31:26;21.70;89.10
41664;DHT22;27353;50.906;7.248;2022-10-10T13:34:02;21.90;91.50
41664;DHT22;27353;50.906;7.248;2022-10-10T13:36:29;21.80;90.40
41664;DHT22;27353;50.906;7.248;2022-10-10T13:38:55;21.90;91.80
41664;DHT22;27353;50.906;7.248;2022-10-10T13:41:22;21.90;91.20
41664;DHT22;27353;50.906;7.248;2022-10-10T13:43:49;21.60;90.60
41664;DHT22;27353;50.906;7.248;2022-10-10T13:46:32;21.60;91.40
41664;DHT22;27353;50.906;7.248;2022-10-10T13:48:59;21.50;90.60
41664;DHT22;27353;50.906;7.248;2022-10-10T13:51:44;21.40;91.30
41664;DHT22;27353;50.906;7.248;2022-10-10T13:54:36;21.30;92.00
41664;DHT22;27353;50.906;7.248;2022-10-10T13:57:02;20.90;91.60
41664;DHT22;27353;50.906;7.248;2022-10-10T13:59:29;20.80;92.50
41664;DHT22;27353;50.906;7.248;2022-10-10T14:01:59;20.70;92.00
41664;DHT22;27353;50.906;7.248;2022-10-10T14:04:43;20.90;92.30
41664;DHT22;27353;50.906;7.248;2022-10-10T14:07:28;21.00;92.80
41664;DHT22;27353;50.906;7.248;2022-10-10T14:10:04;20.80;94.60
41664;DHT22;27353;50.906;7.248;2022-10-10T14:15:03;21.00;95.50
41664;DHT22;27353;50.906;7.248;2022-10-10T14:17:30;21.10;93.70
41664;DHT22;27353;50.906;7.248;2022-10-10T14:19:56;21.30;92.20
41664;DHT22;27353;50.906;7.248;2022-10-10T14:22:22;21.70;92.50
41664;DHT22;27353;50.906;7.248;2022-10-10T14:24:48;21.90;93.50
41664;DHT22;27353;50.906;7.248;2022-10-10T14:27:24;21.60;92.80
41664;DHT22;27353;50.906;7.248;2022-10-10T14:29:52;21.20;92.90
41664;DHT22;27353;50.906;7.248;2022-10-10T14:32:19;20.90;93.80
41664;DHT22;27353;50.906;7.248;2022-10-10T14:34:45;20.60;93.60
41664;DHT22;27353;50.906;7.248;2022-10-10T14:37:21;20.40;95.60
41664;DHT22;27353;50.906;7.248;2022-10-10T14:39:48;20.20;95.10
41664;DHT22;27353;50.906;7.248;2022-10-10T14:42:15;20.10;96.30
41664;DHT22;27353;50.906;7.248;2022-10-10T14:44:41;19.90;96.60
41664;DHT22;27353;50.906;7.248;2022-10-10T14:47:20;19.90;97.30
41664;DHT22;27353;50.906;7.248;2022-10-10T14:49:46;19.80;99.00
41664;DHT22;27353;50.906;7.248;2022-10-10T14:52:12;19.70;99.90
41664;DHT22;27353;50.906;7.248;2022-10-10T14:54:38;19.50;99.90
41664;DHT22;27353;50.906;7.248;2022-10-10T14:57:04;19.50;99.60
41664;DHT22;27353;50.906;7.248;2022-10-10T14:59:30;19.50;99.90
41664;DHT22;27353;50.906;7.248;2022-10-10T15:01:56;19.50;99.90
41664;DHT22;27353;50.906;7.248;2022-10-10T15:04:21;19.50;99.90
41664;DHT22;27353;50.906;7.248;2022-10-10T15:06:47;19.50;98.90
41664;DHT22;27353;50.906;7.248;2022-10-10T15:09:12;19.40;99.90
41664;DHT22;27353;50.906;7.248;2022-10-10T15:11:38;19.30;99.90
41664;DHT22;27353;50.906;7.248;2022-10-10T15:14:04;19.30;99.90
41664;DHT22;27353;50.906;7.248;2022-10-10T15:16:30;19.20;99.90
41664;DHT22;27353;50.906;7.248;2022-10-10T15:18:55;19.00;99.90
41664;DHT22;27353;50.906;7.248;2022-10-10T15:21:21;19.10;99.90
41664;DHT22;27353;50.906;7.248;2022-10-10T15:23:47;18.90;99.90
41664;DHT22;27353;50.906;7.248;2022-10-10T15:26:12;18.60;99.90
41664;DHT22;27353;50.906;7.248;2022-10-10T15:28:38;18.60;99.90
41664;DHT22;27353;50.906;7.248;2022-10-10T15:31:04;18.40;99.90
41664;DHT22;27353;50.906;7.248;2022-10-10T15:33:30;18.50;99.90
41664;DHT22;27353;50.906;7.248;2022-10-10T15:36:00;18.50;99.90
41664;DHT22;27353;50.906;7.248;2022-10-10T15:38:27;18.50;99.90
41664;DHT22;27353;50.906;7.248;2022-10-10T15:41:00;18.50;99.90
41664;DHT22;27353;50.906;7.248;2022-10-10T15:43:27;18.30;99.90
41664;DHT22;27353;50.906;7.248;2022-10-10T15:45:53;18.20;99.90
41664;DHT22;27353;50.906;7.248;2022-10-10T15:48:19;18.20;99.90
41664;DHT22;27353;50.906;7.248;2022-10-10T15:50:45;18.00;99.90
41664;DHT22;27353;50.906;7.248;2022-10-10T15:53:11;18.00;99.90
41664;DHT22;27353;50.906;7.248;2022-10-10T15:55:41;17.90;99.90
41664;DHT22;27353;50.906;7.248;2022-10-10T15:58:06;18.00;99.90
41664;DHT22;27353;50.906;7.248;2022-10-10T16:00:32;18.00;99.90
41664;DHT22;27353;50.906;7.248;2022-10-10T16:02:58;17.90;99.90
41664;DHT22;27353;50.906;7.248;2022-10-10T16:05:23;17.80;99.90
41664;DHT22;27353;50.906;7.248;2022-10-10T16:07:51;17.70;99.90
41664;DHT22;27353;50.906;7.248;2022-10-10T16:10:16;17.70;99.90
41664;DHT22;27353;50.906;7.248;2022-10-10T16:12:42;17.60;99.90
41664;DHT22;27353;50.906;7.248;2022-10-10T16:15:08;17.50;99.90
41664;DHT22;27353;50.906;7.248;2022-10-10T16:17:33;17.50;99.90
41664;DHT22;27353;50.906;7.248;2022-10-10T16:19:59;17.40;99.90
41664;DHT22;27353;50.906;7.248;2022-10-10T16:22:25;17.30;99.90
41664;DHT22;27353;50.906;7.248;2022-10-10T16:24:50;17.30;99.90
41664;DHT22;27353;50.906;7.248;2022-10-10T16:27:16;17.20;99.90
41664;DHT22;27353;50.906;7.248;2022-10-10T16:29:41;17.10;99.90
41664;DHT22;27353;50.906;7.248;2022-10-10T16:32:07;17.10;99.90
41664;DHT22;27353;50.906;7.248;2022-10-10T16:34:32;17.00;99.90
41664;DHT22;27353;50.906;7.248;2022-10-10T16:36:58;16.90;99.90
41664;DHT22;27353;50.906;7.248;2022-10-10T16:39:23;16.90;99.90
41664;DHT22;27353;50.906;7.248;2022-10-10T16:41:49;16.90;99.90
41664;DHT22;27353;50.906;7.248;2022-10-10T16:44:16;16.90;99.90
41664;DHT22;27353;50.906;7.248;2022-10-10T16:46:41;16.80;99.90
41664;DHT22;27353;50.906;7.248;2022-10-10T16:49:08;16.80;99.90
41664;DHT22;27353;50.906;7.248;2022-10-10T16:51:34;16.80;99.90
41664;DHT22;27353;50.906;7.248;2022-10-10T16:54:00;16.80;99.90
41664;DHT22;27353;50.906;7.248;2022-10-10T16:56:27;16.70;99.90
41664;DHT22;27353;50.906;7.248;2022-10-10T16:58:53;16.70;99.90
41664;DHT22;27353;50.906;7.248;2022-10-10T17:01:21;16.60;99.90
41664;DHT22;27353;50.906;7.248;2022-10-10T17:03:48;16.60;99.90
41664;DHT22;27353;50.906;7.248;2022-10-10T17:06:15;16.60;99.90
41664;DHT22;27353;50.906;7.248;2022-10-10T17:08:43;16.60;99.90
41664;DHT22;27353;50.906;7.248;2022-10-10T17:11:09;16.60;99.90
41664;DHT22;27353;50.906;7.248;2022-10-10T17:13:36;16.50;99.90
41664;DHT22;27353;50.906;7.248;2022-10-10T17:16:07;16.50;99.90
41664;DHT22;27353;50.906;7.248;2022-10-10T17:18:34;16.50;99.90
41664;DHT22;27353;50.906;7.248;2022-10-10T17:21:00;16.40;99.90
41664;DHT22;27353;50.906;7.248;2022-10-10T17:23:27;16.40;99.90
41664;DHT22;27353;50.906;7.248;2022-10-10T17:25:52;16.40;99.90
41664;DHT22;27353;50.906;7.248;2022-10-10T17:28:18;16.40;99.90
41664;DHT22;27353;50.906;7.248;2022-10-10T17:30:46;16.30;99.90
41664;DHT22;27353;50.906;7.248;2022-10-10T17:33:14;16.30;99.90